sensor_id;sensor_type;location;lat;lon;timestamp;P1;durP1;ratioP1;P2;durP2;ratioP2
73557;SDS011;61829;53.286;10.434;2022-11-15T00:00:29;29.33;;;15.40;;
73557;SDS011;61829;53.286;10.434;2022-11-15T00:03:03;28.25;;;14.65;;
73557;SDS011;61829;53.286;10.434;2022-11-15T00:05:30;32.70;;;15.05;;
73557;SDS011;61829;53.286;10.434;2022-11-15T00:08:00;27.67;;;14.18;;
73557;SDS011;61829;53.286;10.434;2022-11-15T00:10:26;28.98;;;14.10;;
73557;SDS011;61829;53.286;10.434;2022-11-15T00:12:52;25.65;;;13.50;;
73557;SDS011;61829;53.286;10.434;2022-11-15T00:15:18;26.55;;;14.40;;
73557;SDS011;61829;53.286;10.434;2022-11-15T00:17:44;26.77;;;14.00;;
73557;SDS011;61829;53.286;10.434;2022-11-15T00:20:14;24.17;;;13.85;;
73557;SDS011;61829;53.286;10.434;2022-11-15T00:22:40;24.85;;;13.75;;
73557;SDS011;61829;53.286;10.434;2022-11-15T00:25:07;26.60;;;13.55;;
73557;SDS011;61829;53.286;10.434;2022-11-15T00:27:33;25.85;;;13.25;;
73557;SDS011;61829;53.286;10.434;2022-11-15T00:29:59;24.60;;;13.43;;
73557;SDS011;61829;53.286;10.434;2022-11-15T00:32:25;26.67;;;14.30;;
73557;SDS011;61829;53.286;10.434;2022-11-15T00:34:51;23.85;;;13.48;;
73557;SDS011;61829;53.286;10.434;2022-11-15T00:37:17;23.35;;;12.65;;
73557;SDS011;61829;53.286;10.434;2022-11-15T00:39:43;27.10;;;13.82;;
73557;SDS011;61829;53.286;10.434;2022-11-15T00:42:27;25.65;;;14.02;;
73557;SDS011;61829;53.286;10.434;2022-11-15T00:44:54;24.58;;;13.02;;
73557;SDS011;61829;53.286;10.434;2022-11-15T00:47:19;24.98;;;13.23;;
73557;SDS011;61829;53.286;10.434;2022-11-15T00:49:46;22.75;;;11.88;;
73557;SDS011;61829;53.286;10.434;2022-11-15T00:52:12;23.27;;;12.52;;
73557;SDS011;61829;53.286;10.434;2022-11-15T00:54:38;22.77;;;12.93;;
73557;SDS011;61829;53.286;10.434;2022-11-15T00:57:04;22.25;;;12.10;;
73557;SDS011;61829;53.286;10.434;2022-11-15T00:59:30;25.58;;;13.55;;
73557;SDS011;61829;53.286;10.434;2022-11-15T01:01:56;25.88;;;13.88;;
73557;SDS011;61829;53.286;10.434;2022-11-15T01:04:22;25.65;;;14.43;;
73557;SDS011;61829;53.286;10.434;2022-11-15T01:06:48;27.52;;;13.68;;
73557;SDS011;61829;53.286;10.434;2022-11-15T01:09:15;27.15;;;14.45;;
73557;SDS011;61829;53.286;10.434;2022-11-15T01:11:42;22.02;;;13.02;;
73557;SDS011;61829;53.286;10.434;2022-11-15T01:14:09;23.75;;;13.00;;
73557;SDS011;61829;53.286;10.434;2022-11-15T01:16:35;26.30;;;13.60;;
73557;SDS011;61829;53.286;10.434;2022-11-15T01:19:01;22.83;;;12.55;;
73557;SDS011;61829;53.286;10.434;2022-11-15T01:21:27;22.25;;;13.25;;
73557;SDS011;61829;53.286;10.434;2022-11-15T01:23:54;22.65;;;11.98;;
73557;SDS011;61829;53.286;10.434;2022-11-15T01:26:23;25.63;;;13.23;;
73557;SDS011;61829;53.286;10.434;2022-11-15T01:28:49;22.73;;;13.15;;
73557;SDS011;61829;53.286;10.434;2022-11-15T01:31:16;24.88;;;13.55;;
73557;SDS011;61829;53.286;10.434;2022-11-15T01:33:44;20.80;;;11.80;;
73557;SDS011;61829;53.286;10.434;2022-11-15T01:36:12;25.52;;;13.07;;
73557;SDS011;61829;53.286;10.434;2022-11-15T01:38:42;22.88;;;12.52;;
73557;SDS011;61829;53.286;10.434;2022-11-15T01:41:16;22.33;;;12.43;;
73557;SDS011;61829;53.286;10.434;2022-11-15T01:43:44;21.90;;;12.13;;
73557;SDS011;61829;53.286;10.434;2022-11-15T01:46:18;24.23;;;12.38;;
73557;SDS011;61829;53.286;10.434;2022-11-15T01:48:47;22.02;;;12.07;;
73557;SDS011;61829;53.286;10.434;2022-11-15T01:51:18;23.05;;;12.27;;
73557;SDS011;61829;53.286;10.434;2022-11-15T01:53:49;20.05;;;11.20;;
73557;SDS011;61829;53.286;10.434;2022-11-15T01:56:21;20.80;;;10.95;;
73557;SDS011;61829;53.286;10.434;2022-11-15T01:58:53;20.13;;;11.52;;
73557;SDS011;61829;53.286;10.434;2022-11-15T02:01:22;23.65;;;11.75;;
73557;SDS011;61829;53.286;10.434;2022-11-15T02:03:52;22.25;;;11.98;;
73557;SDS011;61829;53.286;10.434;2022-11-15T02:06:20;19.23;;;11.15;;
73557;SDS011;61829;53.286;10.434;2022-11-15T02:11:51;19.30;;;11.35;;
73557;SDS011;61829;53.286;10.434;2022-11-15T02:14:20;25.40;;;12.07;;
73557;SDS011;61829;53.286;10.434;2022-11-15T02:25:18;21.88;;;11.15;;
73557;SDS011;61829;53.286;10.434;2022-11-15T02:31:17;19.88;;;11.13;;
73557;SDS011;61829;53.286;10.434;2022-11-15T02:34:08;20.65;;;11.13;;
73557;SDS011;61829;53.286;10.434;2022-11-15T02:41:54;24.83;;;11.63;;
73557;SDS011;61829;53.286;10.434;2022-11-15T02:44:38;23.58;;;11.68;;
73557;SDS011;61829;53.286;10.434;2022-11-15T02:47:11;23.50;;;11.02;;
73557;SDS011;61829;53.286;10.434;2022-11-15T02:49:51;21.02;;;10.43;;
73557;SDS011;61829;53.286;10.434;2022-11-15T02:52:20;24.63;;;11.52;;
73557;SDS011;61829;53.286;10.434;2022-11-15T02:54:55;22.02;;;11.88;;
73557;SDS011;61829;53.286;10.434;2022-11-15T02:57:29;22.52;;;11.90;;
73557;SDS011;61829;53.286;10.434;2022-11-15T03:16:03;22.60;;;11.63;;
73557;SDS011;61829;53.286;10.434;2022-11-15T03:18:38;19.42;;;10.57;;
73557;SDS011;61829;53.286;10.434;2022-11-15T03:21:09;23.92;;;11.73;;
73557;SDS011;61829;53.286;10.434;2022-11-15T03:23:38;21.60;;;11.68;;
73557;SDS011;61829;53.286;10.434;2022-11-15T03:26:05;21.20;;;11.40;;
73557;SDS011;61829;53.286;10.434;2022-11-15T03:31:08;21.13;;;11.43;;
73557;SDS011;61829;53.286;10.434;2022-11-15T03:33:56;21.55;;;10.20;;
73557;SDS011;61829;53.286;10.434;2022-11-15T03:36:25;21.27;;;10.88;;
73557;SDS011;61829;53.286;10.434;2022-11-15T03:41:29;23.08;;;11.57;;
73557;SDS011;61829;53.286;10.434;2022-11-15T03:44:39;19.23;;;10.00;;
73557;SDS011;61829;53.286;10.434;2022-11-15T03:49:42;16.23;;;10.02;;
73557;SDS011;61829;53.286;10.434;2022-11-15T03:52:20;19.80;;;10.32;;
73557;SDS011;61829;53.286;10.434;2022-11-15T03:54:49;20.90;;;11.77;;
73557;SDS011;61829;53.286;10.434;2022-11-15T03:57:20;19.08;;;10.27;;
73557;SDS011;61829;53.286;10.434;2022-11-15T03:59:47;19.35;;;10.55;;
73557;SDS011;61829;53.286;10.434;2022-11-15T04:02:13;20.17;;;9.90;;
73557;SDS011;61829;53.286;10.434;2022-11-15T04:04:39;19.73;;;11.13;;
73557;SDS011;61829;53.286;10.434;2022-11-15T04:07:05;20.42;;;10.40;;
73557;SDS011;61829;53.286;10.434;2022-11-15T04:09:31;20.58;;;11.07;;
73557;SDS011;61829;53.286;10.434;2022-11-15T04:11:57;21.35;;;11.40;;
73557;SDS011;61829;53.286;10.434;2022-11-15T04:14:24;19.83;;;11.52;;
73557;SDS011;61829;53.286;10.434;2022-11-15T04:16:49;25.02;;;11.23;;
73557;SDS011;61829;53.286;10.434;2022-11-15T04:19:16;21.55;;;11.40;;
73557;SDS011;61829;53.286;10.434;2022-11-15T04:22:00;20.95;;;11.73;;
73557;SDS011;61829;53.286;10.434;2022-11-15T04:24:45;20.70;;;10.65;;
73557;SDS011;61829;53.286;10.434;2022-11-15T04:27:11;21.85;;;10.73;;
73557;SDS011;61829;53.286;10.434;2022-11-15T04:29:38;20.23;;;10.65;;
73557;SDS011;61829;53.286;10.434;2022-11-15T04:32:05;21.00;;;10.63;;
73557;SDS011;61829;53.286;10.434;2022-11-15T04:34:32;18.45;;;10.02;;
73557;SDS011;61829;53.286;10.434;2022-11-15T04:36:58;20.73;;;11.13;;
73557;SDS011;61829;53.286;10.434;2022-11-15T04:39:40;18.65;;;9.52;;
73557;SDS011;61829;53.286;10.434;2022-11-15T04:42:07;18.65;;;10.73;;
73557;SDS011;61829;53.286;10.434;2022-11-15T04:47:00;18.50;;;10.13;;
73557;SDS011;61829;53.286;10.434;2022-11-15T04:49:27;23.90;;;10.90;;
73557;SDS011;61829;53.286;10.434;2022-11-15T04:51:53;22.65;;;10.88;;
73557;SDS011;61829;53.286;10.434;2022-11-15T04:54:19;19.42;;;10.68;;
73557;SDS011;61829;53.286;10.434;2022-11-15T04:56:45;19.63;;;10.65;;
73557;SDS011;61829;53.286;10.434;2022-11-15T04:59:12;17.95;;;10.23;;
73557;SDS011;61829;53.286;10.434;2022-11-15T05:01:37;18.92;;;10.30;;
73557;SDS011;61829;53.286;10.434;2022-11-15T05:04:05;21.80;;;10.27;;
73557;SDS011;61829;53.286;10.434;2022-11-15T05:06:49;19.48;;;10.38;;
73557;SDS011;61829;53.286;10.434;2022-11-15T05:09:20;17.35;;;10.27;;
73557;SDS011;61829;53.286;10.434;2022-11-15T05:11:46;19.50;;;10.90;;
73557;SDS011;61829;53.286;10.434;2022-11-15T05:14:13;21.05;;;12.55;;
73557;SDS011;61829;53.286;10.434;2022-11-15T05:16:39;19.08;;;11.02;;
73557;SDS011;61829;53.286;10.434;2022-11-15T05:19:06;17.67;;;9.82;;
73557;SDS011;61829;53.286;10.434;2022-11-15T05:21:32;16.55;;;10.07;;
73557;SDS011;61829;53.286;10.434;2022-11-15T05:23:59;19.67;;;10.82;;
73557;SDS011;61829;53.286;10.434;2022-11-15T05:26:26;21.42;;;11.18;;
73557;SDS011;61829;53.286;10.434;2022-11-15T05:28:57;21.52;;;10.30;;
73557;SDS011;61829;53.286;10.434;2022-11-15T05:31:24;17.70;;;9.90;;
73557;SDS011;61829;53.286;10.434;2022-11-15T05:33:51;20.30;;;10.40;;
73557;SDS011;61829;53.286;10.434;2022-11-15T05:39:01;19.60;;;11.40;;
73557;SDS011;61829;53.286;10.434;2022-11-15T05:41:32;18.55;;;9.60;;
73557;SDS011;61829;53.286;10.434;2022-11-15T05:44:01;24.13;;;12.20;;
73557;SDS011;61829;53.286;10.434;2022-11-15T05:46:31;23.85;;;12.13;;
73557;SDS011;61829;53.286;10.434;2022-11-15T05:48:59;21.65;;;12.27;;
73557;SDS011;61829;53.286;10.434;2022-11-15T05:51:25;28.40;;;11.70;;
73557;SDS011;61829;53.286;10.434;2022-11-15T05:53:55;21.92;;;11.77;;
73557;SDS011;61829;53.286;10.434;2022-11-15T05:56:23;25.80;;;11.00;;
73557;SDS011;61829;53.286;10.434;2022-11-15T05:58:51;20.52;;;11.52;;
73557;SDS011;61829;53.286;10.434;2022-11-15T06:01:19;22.05;;;11.35;;
73557;SDS011;61829;53.286;10.434;2022-11-15T06:03:45;19.20;;;9.95;;
73557;SDS011;61829;53.286;10.434;2022-11-15T06:06:11;20.98;;;10.73;;
73557;SDS011;61829;53.286;10.434;2022-11-15T06:08:38;23.63;;;11.68;;
73557;SDS011;61829;53.286;10.434;2022-11-15T06:11:05;22.80;;;12.75;;
73557;SDS011;61829;53.286;10.434;2022-11-15T06:13:32;19.98;;;11.27;;
73557;SDS011;61829;53.286;10.434;2022-11-15T06:15:58;22.55;;;11.23;;
73557;SDS011;61829;53.286;10.434;2022-11-15T06:18:25;21.20;;;11.63;;
73557;SDS011;61829;53.286;10.434;2022-11-15T06:20:51;26.05;;;11.50;;
73557;SDS011;61829;53.286;10.434;2022-11-15T06:23:17;20.58;;;11.25;;
73557;SDS011;61829;53.286;10.434;2022-11-15T06:25:43;20.63;;;10.88;;
73557;SDS011;61829;53.286;10.434;2022-11-15T06:28:10;20.88;;;10.55;;
73557;SDS011;61829;53.286;10.434;2022-11-15T06:30:36;20.70;;;10.85;;
73557;SDS011;61829;53.286;10.434;2022-11-15T06:33:03;18.90;;;11.48;;
73557;SDS011;61829;53.286;10.434;2022-11-15T06:35:30;22.83;;;11.45;;
73557;SDS011;61829;53.286;10.434;2022-11-15T06:38:06;24.50;;;12.27;;
73557;SDS011;61829;53.286;10.434;2022-11-15T06:40:34;21.50;;;11.55;;
73557;SDS011;61829;53.286;10.434;2022-11-15T06:43:02;23.00;;;10.88;;
73557;SDS011;61829;53.286;10.434;2022-11-15T06:45:30;23.67;;;12.93;;
73557;SDS011;61829;53.286;10.434;2022-11-15T06:47:57;23.13;;;11.77;;
73557;SDS011;61829;53.286;10.434;2022-11-15T06:50:23;22.92;;;12.05;;
73557;SDS011;61829;53.286;10.434;2022-11-15T06:52:50;24.98;;;12.95;;
73557;SDS011;61829;53.286;10.434;2022-11-15T06:55:16;28.15;;;13.00;;
73557;SDS011;61829;53.286;10.434;2022-11-15T06:57:46;30.92;;;15.05;;
73557;SDS011;61829;53.286;10.434;2022-11-15T07:00:13;29.33;;;15.05;;
73557;SDS011;61829;53.286;10.434;2022-11-15T07:02:40;34.13;;;16.00;;
73557;SDS011;61829;53.286;10.434;2022-11-15T07:05:06;33.20;;;15.35;;
73557;SDS011;61829;53.286;10.434;2022-11-15T07:07:32;33.65;;;17.17;;
73557;SDS011;61829;53.286;10.434;2022-11-15T07:09:58;29.75;;;15.68;;
73557;SDS011;61829;53.286;10.434;2022-11-15T07:12:24;31.48;;;16.02;;
73557;SDS011;61829;53.286;10.434;2022-11-15T07:14:50;30.33;;;16.90;;
73557;SDS011;61829;53.286;10.434;2022-11-15T07:17:16;27.80;;;14.43;;
73557;SDS011;61829;53.286;10.434;2022-11-15T07:19:43;27.52;;;14.60;;
73557;SDS011;61829;53.286;10.434;2022-11-15T07:22:10;27.95;;;14.60;;
73557;SDS011;61829;53.286;10.434;2022-11-15T07:24:36;26.60;;;14.52;;
73557;SDS011;61829;53.286;10.434;2022-11-15T07:27:02;30.05;;;13.75;;
73557;SDS011;61829;53.286;10.434;2022-11-15T07:29:28;23.70;;;12.63;;
73557;SDS011;61829;53.286;10.434;2022-11-15T07:31:54;25.70;;;12.43;;
73557;SDS011;61829;53.286;10.434;2022-11-15T07:34:20;24.95;;;12.57;;
73557;SDS011;61829;53.286;10.434;2022-11-15T07:36:46;21.85;;;12.23;;
73557;SDS011;61829;53.286;10.434;2022-11-15T07:39:13;21.67;;;12.07;;
73557;SDS011;61829;53.286;10.434;2022-11-15T07:41:40;23.80;;;12.88;;
73557;SDS011;61829;53.286;10.434;2022-11-15T07:44:06;23.00;;;12.65;;
73557;SDS011;61829;53.286;10.434;2022-11-15T07:46:32;27.45;;;14.55;;
73557;SDS011;61829;53.286;10.434;2022-11-15T07:49:01;24.55;;;14.05;;
73557;SDS011;61829;53.286;10.434;2022-11-15T07:51:27;22.38;;;13.15;;
73557;SDS011;61829;53.286;10.434;2022-11-15T07:53:53;25.77;;;13.50;;
73557;SDS011;61829;53.286;10.434;2022-11-15T07:56:19;23.20;;;12.80;;
73557;SDS011;61829;53.286;10.434;2022-11-15T07:58:46;22.30;;;13.35;;
73557;SDS011;61829;53.286;10.434;2022-11-15T08:01:12;25.40;;;13.95;;
73557;SDS011;61829;53.286;10.434;2022-11-15T08:03:38;27.13;;;14.50;;
73557;SDS011;61829;53.286;10.434;2022-11-15T08:06:05;24.00;;;12.75;;
73557;SDS011;61829;53.286;10.434;2022-11-15T08:08:31;22.73;;;12.15;;
73557;SDS011;61829;53.286;10.434;2022-11-15T08:10:57;20.33;;;11.60;;
73557;SDS011;61829;53.286;10.434;2022-11-15T08:13:23;19.02;;;10.95;;
73557;SDS011;61829;53.286;10.434;2022-11-15T08:15:50;17.33;;;10.45;;
73557;SDS011;61829;53.286;10.434;2022-11-15T08:18:16;18.35;;;9.68;;
73557;SDS011;61829;53.286;10.434;2022-11-15T08:20:43;18.00;;;9.93;;
73557;SDS011;61829;53.286;10.434;2022-11-15T08:23:10;16.88;;;9.38;;
73557;SDS011;61829;53.286;10.434;2022-11-15T08:25:37;18.45;;;9.73;;
73557;SDS011;61829;53.286;10.434;2022-11-15T08:28:05;16.20;;;9.60;;
73557;SDS011;61829;53.286;10.434;2022-11-15T08:30:35;14.27;;;8.27;;
73557;SDS011;61829;53.286;10.434;2022-11-15T08:33:03;17.02;;;9.30;;
73557;SDS011;61829;53.286;10.434;2022-11-15T08:35:30;18.73;;;9.77;;
73557;SDS011;61829;53.286;10.434;2022-11-15T08:37:56;13.63;;;8.55;;
73557;SDS011;61829;53.286;10.434;2022-11-15T08:40:22;15.45;;;8.88;;
73557;SDS011;61829;53.286;10.434;2022-11-15T08:42:48;14.93;;;8.48;;
73557;SDS011;61829;53.286;10.434;2022-11-15T08:45:15;15.90;;;9.40;;
73557;SDS011;61829;53.286;10.434;2022-11-15T08:47:40;14.65;;;9.65;;
73557;SDS011;61829;53.286;10.434;2022-11-15T08:50:07;16.27;;;9.60;;
73557;SDS011;61829;53.286;10.434;2022-11-15T08:52:33;15.82;;;9.23;;
73557;SDS011;61829;53.286;10.434;2022-11-15T08:54:59;18.95;;;10.60;;
73557;SDS011;61829;53.286;10.434;2022-11-15T08:57:27;16.30;;;9.98;;
73557;SDS011;61829;53.286;10.434;2022-11-15T08:59:56;18.40;;;9.43;;
73557;SDS011;61829;53.286;10.434;2022-11-15T09:02:22;18.10;;;9.77;;
73557;SDS011;61829;53.286;10.434;2022-11-15T09:04:48;16.80;;;10.18;;
73557;SDS011;61829;53.286;10.434;2022-11-15T09:07:14;16.17;;;8.75;;
73557;SDS011;61829;53.286;10.434;2022-11-15T09:09:41;14.65;;;9.18;;
73557;SDS011;61829;53.286;10.434;2022-11-15T09:12:07;12.73;;;8.27;;
73557;SDS011;61829;53.286;10.434;2022-11-15T09:14:33;16.45;;;9.18;;
73557;SDS011;61829;53.286;10.434;2022-11-15T09:16:59;15.52;;;8.43;;
73557;SDS011;61829;53.286;10.434;2022-11-15T09:21:52;12.40;;;7.63;;
73557;SDS011;61829;53.286;10.434;2022-11-15T09:24:19;12.82;;;8.18;;
73557;SDS011;61829;53.286;10.434;2022-11-15T09:26:45;13.15;;;8.38;;
73557;SDS011;61829;53.286;10.434;2022-11-15T09:29:11;12.20;;;8.10;;
73557;SDS011;61829;53.286;10.434;2022-11-15T09:31:37;13.98;;;8.10;;
73557;SDS011;61829;53.286;10.434;2022-11-15T09:34:03;13.32;;;9.07;;
73557;SDS011;61829;53.286;10.434;2022-11-15T09:36:29;14.40;;;8.55;;
73557;SDS011;61829;53.286;10.434;2022-11-15T09:38:57;14.23;;;8.20;;
73557;SDS011;61829;53.286;10.434;2022-11-15T09:50:06;20.65;;;9.75;;
73557;SDS011;61829;53.286;10.434;2022-11-15T09:52:35;12.85;;;8.25;;
73557;SDS011;61829;53.286;10.434;2022-11-15T09:55:04;15.60;;;8.85;;
73557;SDS011;61829;53.286;10.434;2022-11-15T10:02:46;12.73;;;7.97;;
73557;SDS011;61829;53.286;10.434;2022-11-15T10:05:46;12.48;;;7.13;;
73557;SDS011;61829;53.286;10.434;2022-11-15T10:08:35;12.85;;;7.57;;
73557;SDS011;61829;53.286;10.434;2022-11-15T10:11:14;13.80;;;7.93;;
73557;SDS011;61829;53.286;10.434;2022-11-15T10:13:44;11.55;;;7.30;;
73557;SDS011;61829;53.286;10.434;2022-11-15T10:24:11;11.13;;;6.88;;
73557;SDS011;61829;53.286;10.434;2022-11-15T10:26:39;10.27;;;6.05;;
73557;SDS011;61829;53.286;10.434;2022-11-15T10:29:18;10.32;;;5.47;;
73557;SDS011;61829;53.286;10.434;2022-11-15T10:31:48;9.70;;;6.15;;
73557;SDS011;61829;53.286;10.434;2022-11-15T10:36:55;9.35;;;6.10;;
73557;SDS011;61829;53.286;10.434;2022-11-15T10:39:25;9.93;;;6.07;;
73557;SDS011;61829;53.286;10.434;2022-11-15T10:41:53;10.52;;;6.20;;
73557;SDS011;61829;53.286;10.434;2022-11-15T10:44:28;10.15;;;6.13;;
73557;SDS011;61829;53.286;10.434;2022-11-15T10:49:25;10.23;;;5.95;;
73557;SDS011;61829;53.286;10.434;2022-11-15T10:54:41;9.35;;;5.82;;
73557;SDS011;61829;53.286;10.434;2022-11-15T10:57:31;10.57;;;6.65;;
73557;SDS011;61829;53.286;10.434;2022-11-15T11:00:00;11.95;;;6.82;;
73557;SDS011;61829;53.286;10.434;2022-11-15T11:02:31;8.30;;;6.30;;
73557;SDS011;61829;53.286;10.434;2022-11-15T11:05:00;10.75;;;6.65;;
73557;SDS011;61829;53.286;10.434;2022-11-15T11:07:29;10.85;;;6.90;;
73557;SDS011;61829;53.286;10.434;2022-11-15T11:10:19;8.55;;;6.03;;
73557;SDS011;61829;53.286;10.434;2022-11-15T11:12:45;10.73;;;6.45;;
73557;SDS011;61829;53.286;10.434;2022-11-15T11:15:12;9.73;;;6.57;;
73557;SDS011;61829;53.286;10.434;2022-11-15T11:23:03;10.07;;;6.18;;
73557;SDS011;61829;53.286;10.434;2022-11-15T11:28:53;9.63;;;6.40;;
73557;SDS011;61829;53.286;10.434;2022-11-15T11:31:39;10.27;;;5.47;;
73557;SDS011;61829;53.286;10.434;2022-11-15T11:48:19;14.65;;;8.13;;
73557;SDS011;61829;53.286;10.434;2022-11-15T11:50:44;11.90;;;6.97;;
73557;SDS011;61829;53.286;10.434;2022-11-15T11:53:13;9.60;;;5.93;;
73557;SDS011;61829;53.286;10.434;2022-11-15T11:55:53;7.82;;;4.25;;
73557;SDS011;61829;53.286;10.434;2022-11-15T11:58:28;7.53;;;4.57;;
73557;SDS011;61829;53.286;10.434;2022-11-15T12:12:04;10.85;;;5.20;;
73557;SDS011;61829;53.286;10.434;2022-11-15T12:14:56;8.20;;;5.00;;
73557;SDS011;61829;53.286;10.434;2022-11-15T12:17:30;9.27;;;4.75;;
73557;SDS011;61829;53.286;10.434;2022-11-15T12:19:58;7.97;;;5.10;;
73557;SDS011;61829;53.286;10.434;2022-11-15T12:25:03;10.15;;;5.60;;
73557;SDS011;61829;53.286;10.434;2022-11-15T12:31:05;9.15;;;4.82;;
73557;SDS011;61829;53.286;10.434;2022-11-15T12:37:02;9.43;;;5.57;;
73557;SDS011;61829;53.286;10.434;2022-11-15T12:40:37;7.05;;;4.55;;
73557;SDS011;61829;53.286;10.434;2022-11-15T12:43:38;8.02;;;5.07;;
73557;SDS011;61829;53.286;10.434;2022-11-15T12:46:05;8.23;;;5.53;;
73557;SDS011;61829;53.286;10.434;2022-11-15T12:51:04;12.48;;;7.70;;
73557;SDS011;61829;53.286;10.434;2022-11-15T12:53:31;11.75;;;7.28;;
73557;SDS011;61829;53.286;10.434;2022-11-15T13:06:49;12.10;;;7.50;;
73557;SDS011;61829;53.286;10.434;2022-11-15T13:14:46;9.95;;;5.93;;
73557;SDS011;61829;53.286;10.434;2022-11-15T13:19:45;8.40;;;5.20;;
73557;SDS011;61829;53.286;10.434;2022-11-15T13:22:13;7.03;;;4.60;;
73557;SDS011;61829;53.286;10.434;2022-11-15T13:24:58;9.52;;;4.75;;
73557;SDS011;61829;53.286;10.434;2022-11-15T13:27:26;9.13;;;5.60;;
73557;SDS011;61829;53.286;10.434;2022-11-15T13:29:53;7.90;;;4.72;;
73557;SDS011;61829;53.286;10.434;2022-11-15T13:32:19;8.90;;;4.97;;
73557;SDS011;61829;53.286;10.434;2022-11-15T13:34:46;8.50;;;5.10;;
73557;SDS011;61829;53.286;10.434;2022-11-15T13:39:47;8.10;;;4.50;;
73557;SDS011;61829;53.286;10.434;2022-11-15T13:42:15;7.25;;;4.72;;
73557;SDS011;61829;53.286;10.434;2022-11-15T13:44:56;8.23;;;5.10;;
73557;SDS011;61829;53.286;10.434;2022-11-15T13:49:58;8.38;;;4.63;;
73557;SDS011;61829;53.286;10.434;2022-11-15T13:52:30;8.60;;;4.80;;
73557;SDS011;61829;53.286;10.434;2022-11-15T13:55:37;8.48;;;4.70;;
73557;SDS011;61829;53.286;10.434;2022-11-15T13:58:04;8.50;;;4.78;;
73557;SDS011;61829;53.286;10.434;2022-11-15T14:03:17;9.90;;;5.22;;
73557;SDS011;61829;53.286;10.434;2022-11-15T14:05:46;8.50;;;5.20;;
73557;SDS011;61829;53.286;10.434;2022-11-15T14:08:41;8.05;;;5.22;;
73557;SDS011;61829;53.286;10.434;2022-11-15T14:11:23;9.15;;;5.10;;
73557;SDS011;61829;53.286;10.434;2022-11-15T14:16:47;8.55;;;4.97;;
73557;SDS011;61829;53.286;10.434;2022-11-15T14:24:43;8.32;;;5.20;;
73557;SDS011;61829;53.286;10.434;2022-11-15T14:27:27;8.35;;;4.53;;
73557;SDS011;61829;53.286;10.434;2022-11-15T14:29:54;7.68;;;4.80;;
73557;SDS011;61829;53.286;10.434;2022-11-15T14:32:22;6.80;;;4.78;;
73557;SDS011;61829;53.286;10.434;2022-11-15T14:34:54;8.85;;;4.97;;
73557;SDS011;61829;53.286;10.434;2022-11-15T14:41:16;10.75;;;5.22;;
73557;SDS011;61829;53.286;10.434;2022-11-15T14:43:44;8.15;;;4.72;;
73557;SDS011;61829;53.286;10.434;2022-11-15T14:46:11;7.35;;;4.78;;
73557;SDS011;61829;53.286;10.434;2022-11-15T14:48:37;7.65;;;4.65;;
73557;SDS011;61829;53.286;10.434;2022-11-15T14:51:08;7.60;;;4.57;;
73557;SDS011;61829;53.286;10.434;2022-11-15T14:53:37;7.28;;;4.60;;
73557;SDS011;61829;53.286;10.434;2022-11-15T14:56:03;8.02;;;4.95;;
73557;SDS011;61829;53.286;10.434;2022-11-15T14:58:29;8.10;;;5.18;;
73557;SDS011;61829;53.286;10.434;2022-11-15T15:00:55;8.18;;;5.28;;
73557;SDS011;61829;53.286;10.434;2022-11-15T15:03:21;9.02;;;5.38;;
73557;SDS011;61829;53.286;10.434;2022-11-15T15:05:49;8.65;;;5.07;;
73557;SDS011;61829;53.286;10.434;2022-11-15T15:08:15;8.60;;;4.88;;
73557;SDS011;61829;53.286;10.434;2022-11-15T15:10:42;8.43;;;5.47;;
73557;SDS011;61829;53.286;10.434;2022-11-15T15:13:18;8.55;;;5.47;;
73557;SDS011;61829;53.286;10.434;2022-11-15T15:15:46;7.43;;;5.22;;
73557;SDS011;61829;53.286;10.434;2022-11-15T15:20:39;8.18;;;4.68;;
73557;SDS011;61829;53.286;10.434;2022-11-15T15:23:17;8.68;;;5.20;;
73557;SDS011;61829;53.286;10.434;2022-11-15T15:25:45;9.23;;;5.07;;
73557;SDS011;61829;53.286;10.434;2022-11-15T15:28:20;7.60;;;5.28;;
73557;SDS011;61829;53.286;10.434;2022-11-15T15:30:46;8.93;;;5.22;;
73557;SDS011;61829;53.286;10.434;2022-11-15T15:33:16;8.15;;;4.90;;
73557;SDS011;61829;53.286;10.434;2022-11-15T15:35:42;8.95;;;5.40;;
73557;SDS011;61829;53.286;10.434;2022-11-15T15:38:11;8.30;;;5.53;;
73557;SDS011;61829;53.286;10.434;2022-11-15T15:40:38;7.55;;;5.07;;
73557;SDS011;61829;53.286;10.434;2022-11-15T15:43:04;8.57;;;5.07;;
73557;SDS011;61829;53.286;10.434;2022-11-15T15:45:30;7.57;;;5.03;;
73557;SDS011;61829;53.286;10.434;2022-11-15T15:50:24;8.20;;;5.22;;
73557;SDS011;61829;53.286;10.434;2022-11-15T15:52:53;11.10;;;5.82;;
73557;SDS011;61829;53.286;10.434;2022-11-15T15:55:21;8.40;;;5.20;;
73557;SDS011;61829;53.286;10.434;2022-11-15T15:57:47;8.85;;;4.63;;
73557;SDS011;61829;53.286;10.434;2022-11-15T16:00:14;11.13;;;6.47;;
73557;SDS011;61829;53.286;10.434;2022-11-15T16:02:41;9.43;;;6.05;;
73557;SDS011;61829;53.286;10.434;2022-11-15T16:05:08;11.77;;;6.18;;
73557;SDS011;61829;53.286;10.434;2022-11-15T16:07:34;11.68;;;5.97;;
73557;SDS011;61829;53.286;10.434;2022-11-15T16:10:02;11.07;;;5.60;;
73557;SDS011;61829;53.286;10.434;2022-11-15T16:12:41;10.30;;;5.88;;
73557;SDS011;61829;53.286;10.434;2022-11-15T16:15:07;10.23;;;5.97;;
73557;SDS011;61829;53.286;10.434;2022-11-15T16:17:35;11.45;;;6.72;;
73557;SDS011;61829;53.286;10.434;2022-11-15T16:20:06;12.68;;;7.00;;
73557;SDS011;61829;53.286;10.434;2022-11-15T16:22:32;12.25;;;7.00;;
73557;SDS011;61829;53.286;10.434;2022-11-15T16:24:58;10.60;;;6.13;;
73557;SDS011;61829;53.286;10.434;2022-11-15T16:27:24;8.95;;;6.35;;
73557;SDS011;61829;53.286;10.434;2022-11-15T16:29:50;10.52;;;6.68;;
73557;SDS011;61829;53.286;10.434;2022-11-15T16:32:16;11.40;;;6.38;;
73557;SDS011;61829;53.286;10.434;2022-11-15T16:34:43;11.90;;;7.18;;
73557;SDS011;61829;53.286;10.434;2022-11-15T16:37:18;11.40;;;6.22;;
73557;SDS011;61829;53.286;10.434;2022-11-15T16:39:48;10.77;;;5.93;;
73557;SDS011;61829;53.286;10.434;2022-11-15T16:42:14;11.57;;;6.38;;
73557;SDS011;61829;53.286;10.434;2022-11-15T16:44:41;12.00;;;7.43;;
73557;SDS011;61829;53.286;10.434;2022-11-15T16:47:16;13.65;;;7.05;;
73557;SDS011;61829;53.286;10.434;2022-11-15T16:49:44;13.63;;;7.53;;
73557;SDS011;61829;53.286;10.434;2022-11-15T16:59:05;12.55;;;7.22;;
73557;SDS011;61829;53.286;10.434;2022-11-15T17:01:32;13.23;;;7.38;;
73557;SDS011;61829;53.286;10.434;2022-11-15T17:04:01;12.30;;;7.18;;
73557;SDS011;61829;53.286;10.434;2022-11-15T17:06:41;12.07;;;7.65;;
73557;SDS011;61829;53.286;10.434;2022-11-15T17:09:13;14.50;;;7.97;;
73557;SDS011;61829;53.286;10.434;2022-11-15T17:11:44;12.30;;;7.55;;
73557;SDS011;61829;53.286;10.434;2022-11-15T17:14:11;13.30;;;7.63;;
73557;SDS011;61829;53.286;10.434;2022-11-15T17:16:37;16.08;;;9.35;;
73557;SDS011;61829;53.286;10.434;2022-11-15T17:19:14;18.50;;;10.00;;
73557;SDS011;61829;53.286;10.434;2022-11-15T17:21:42;14.00;;;9.55;;
73557;SDS011;61829;53.286;10.434;2022-11-15T17:24:10;14.57;;;9.65;;
73557;SDS011;61829;53.286;10.434;2022-11-15T17:26:37;15.77;;;8.85;;
73557;SDS011;61829;53.286;10.434;2022-11-15T17:29:03;12.15;;;7.97;;